Главная страница
METAR-TAF:

METAR-TAF

Аэропорты :

Wings Field

Филадельфия / Blue Bell, Пенсильвания, США

широта: 40-08-15N, долгота: 075-15-54W, высота над уровнем моря: 92 м

Текущие метеонаблюдения

Эта сводка был подготовлена 24 минут назад, в 10:55 UTC
Штиль
Температура 10°C
Влажность 100%
Давление 1015 hPa
Видимость: 8.0 км
ясное небо
дымка

METAR: KLOM 241055Z AUTO 00000KT 5SM BR CLR 10/10 A2998 RMK AO2 T01030101

Время: 07:19 (11:19 UTC)


TAF: отсутствует

Метеонаблюдения и прогнозы для более 4000 аэропортов (сводки METAR и TAF).

Имеющиеся станции представлены на карте желтыми и красными точками.

Чтобы увидеть название станции, наведите на нее мышь.

Затем щелкните, чтобы увидеть метеонаблюдения и метеопрогнозы.

Управление картой: чтобы увеличить масштаб, щелкните зеленые кнопки с черным крестиком; чтобы уменьшить масштаб, щелкните зеленую кнопку с тире; для просмотра соседних карт щелкайте зеленые стрелки.


METAR-TAF: